Tombstone, Arizona
Current Conditions -  °F | °C
As of 7:56 PM on Saturday 25 Oct 2014 (Local Time) from KFHU Reporting Station
Clear Clear  
Wind Chill: 72°   Ceiling: Unl
Heat Index: 72°   Visibility: 10mi
Dew Point: 48°   Wind: 13mph
Humidity: 43%   Direction: 230°SW
Pressure: 30.18"   Gusts: NA
Location:  31.71°N, 110.07°W
Report Text: KFHU 260256Z AUTO 23011KT 10SM CLR 22/09 A3018 RMK AO2 SLP164 T02220089 53004 $
Loading
Personal Weather Stations






























Interactive Weather Map
Tropical Storm Tracking
New forecast layout! Learn more

10-Day Weather Forecast

Advertisements
Track Severe Weather on mobile